sensor_id;sensor_type;location;lat;lon;timestamp;P1;durP1;ratioP1;P2;durP2;ratioP2
1679;SDS011;838;51.794;12.258;2024-02-21T00:01:46;8.43;;;3.30;;
1679;SDS011;838;51.794;12.258;2024-02-21T00:04:12;8.60;;;3.00;;
1679;SDS011;838;51.794;12.258;2024-02-21T00:06:38;7.60;;;2.93;;
1679;SDS011;838;51.794;12.258;2024-02-21T00:09:04;7.80;;;3.40;;
1679;SDS011;838;51.794;12.258;2024-02-21T00:11:29;15.50;;;4.13;;
1679;SDS011;838;51.794;12.258;2024-02-21T00:13:55;10.90;;;3.87;;
1679;SDS011;838;51.794;12.258;2024-02-21T00:16:21;13.70;;;3.93;;
1679;SDS011;838;51.794;12.258;2024-02-21T00:18:47;9.37;;;3.37;;
1679;SDS011;838;51.794;12.258;2024-02-21T00:21:12;8.03;;;3.40;;
1679;SDS011;838;51.794;12.258;2024-02-21T00:23:43;11.43;;;3.70;;
1679;SDS011;838;51.794;12.258;2024-02-21T00:26:11;6.63;;;3.40;;
1679;SDS011;838;51.794;12.258;2024-02-21T00:28:39;9.27;;;3.73;;
1679;SDS011;838;51.794;12.258;2024-02-21T00:31:05;14.10;;;4.23;;
1679;SDS011;838;51.794;12.258;2024-02-21T00:33:31;15.80;;;5.40;;
1679;SDS011;838;51.794;12.258;2024-02-21T00:35:57;12.33;;;3.50;;
1679;SDS011;838;51.794;12.258;2024-02-21T00:38:23;9.53;;;3.00;;
1679;SDS011;838;51.794;12.258;2024-02-21T00:40:48;17.37;;;4.77;;
1679;SDS011;838;51.794;12.258;2024-02-21T00:43:14;7.73;;;3.47;;
1679;SDS011;838;51.794;12.258;2024-02-21T00:45:40;9.77;;;3.73;;
1679;SDS011;838;51.794;12.258;2024-02-21T00:48:06;12.10;;;3.50;;
1679;SDS011;838;51.794;12.258;2024-02-21T00:50:32;10.40;;;3.60;;
1679;SDS011;838;51.794;12.258;2024-02-21T00:52:57;9.30;;;3.40;;
1679;SDS011;838;51.794;12.258;2024-02-21T00:55:23;8.90;;;3.80;;
1679;SDS011;838;51.794;12.258;2024-02-21T00:57:52;12.30;;;3.47;;
1679;SDS011;838;51.794;12.258;2024-02-21T01:00:18;11.37;;;3.40;;
1679;SDS011;838;51.794;12.258;2024-02-21T01:02:44;7.67;;;3.83;;
1679;SDS011;838;51.794;12.258;2024-02-21T01:05:10;10.80;;;3.40;;
1679;SDS011;838;51.794;12.258;2024-02-21T01:07:36;9.33;;;4.10;;
1679;SDS011;838;51.794;12.258;2024-02-21T01:10:03;7.60;;;2.83;;
1679;SDS011;838;51.794;12.258;2024-02-21T01:12:29;9.07;;;4.37;;
1679;SDS011;838;51.794;12.258;2024-02-21T01:14:55;11.73;;;4.50;;
1679;SDS011;838;51.794;12.258;2024-02-21T01:17:20;9.77;;;3.03;;
1679;SDS011;838;51.794;12.258;2024-02-21T01:19:46;6.70;;;3.37;;
1679;SDS011;838;51.794;12.258;2024-02-21T01:22:12;13.63;;;3.73;;
1679;SDS011;838;51.794;12.258;2024-02-21T01:24:38;13.07;;;4.27;;
1679;SDS011;838;51.794;12.258;2024-02-21T01:27:03;11.03;;;3.67;;
1679;SDS011;838;51.794;12.258;2024-02-21T01:29:29;8.40;;;3.70;;
1679;SDS011;838;51.794;12.258;2024-02-21T01:31:55;18.47;;;4.00;;
1679;SDS011;838;51.794;12.258;2024-02-21T01:34:20;13.27;;;3.13;;
1679;SDS011;838;51.794;12.258;2024-02-21T01:36:47;7.73;;;3.00;;
1679;SDS011;838;51.794;12.258;2024-02-21T01:39:13;10.10;;;3.83;;
1679;SDS011;838;51.794;12.258;2024-02-21T01:41:39;16.13;;;3.73;;
1679;SDS011;838;51.794;12.258;2024-02-21T01:44:04;10.30;;;3.63;;
1679;SDS011;838;51.794;12.258;2024-02-21T01:46:30;9.10;;;3.47;;
1679;SDS011;838;51.794;12.258;2024-02-21T01:48:56;12.03;;;3.40;;
1679;SDS011;838;51.794;12.258;2024-02-21T01:51:23;9.97;;;3.17;;
1679;SDS011;838;51.794;12.258;2024-02-21T01:53:50;7.33;;;3.27;;
1679;SDS011;838;51.794;12.258;2024-02-21T01:56:17;10.23;;;4.10;;
1679;SDS011;838;51.794;12.258;2024-02-21T01:58:43;12.97;;;3.77;;
1679;SDS011;838;51.794;12.258;2024-02-21T02:01:09;14.20;;;3.17;;
1679;SDS011;838;51.794;12.258;2024-02-21T02:03:36;12.17;;;3.77;;
1679;SDS011;838;51.794;12.258;2024-02-21T02:06:02;7.00;;;3.50;;
1679;SDS011;838;51.794;12.258;2024-02-21T02:08:29;11.83;;;3.63;;
1679;SDS011;838;51.794;12.258;2024-02-21T02:10:56;9.17;;;3.50;;
1679;SDS011;838;51.794;12.258;2024-02-21T02:13:22;8.10;;;2.70;;
1679;SDS011;838;51.794;12.258;2024-02-21T02:15:48;15.27;;;4.40;;
1679;SDS011;838;51.794;12.258;2024-02-21T02:18:15;10.53;;;3.83;;
1679;SDS011;838;51.794;12.258;2024-02-21T02:20:42;14.10;;;4.20;;
1679;SDS011;838;51.794;12.258;2024-02-21T02:23:28;10.23;;;5.17;;
1679;SDS011;838;51.794;12.258;2024-02-21T02:25:55;12.83;;;4.80;;
1679;SDS011;838;51.794;12.258;2024-02-21T02:28:21;14.33;;;4.00;;
1679;SDS011;838;51.794;12.258;2024-02-21T02:30:47;9.63;;;3.63;;
1679;SDS011;838;51.794;12.258;2024-02-21T02:33:13;9.57;;;3.67;;
1679;SDS011;838;51.794;12.258;2024-02-21T02:35:39;9.80;;;4.63;;
1679;SDS011;838;51.794;12.258;2024-02-21T02:38:05;7.17;;;3.20;;
1679;SDS011;838;51.794;12.258;2024-02-21T02:40:34;12.80;;;3.77;;
1679;SDS011;838;51.794;12.258;2024-02-21T02:43:02;8.57;;;3.90;;
1679;SDS011;838;51.794;12.258;2024-02-21T02:45:28;7.30;;;3.43;;
1679;SDS011;838;51.794;12.258;2024-02-21T02:47:54;12.73;;;3.40;;
1679;SDS011;838;51.794;12.258;2024-02-21T02:50:20;11.70;;;3.87;;
1679;SDS011;838;51.794;12.258;2024-02-21T02:52:46;8.40;;;3.50;;
1679;SDS011;838;51.794;12.258;2024-02-21T02:55:11;9.50;;;3.80;;
1679;SDS011;838;51.794;12.258;2024-02-21T02:57:37;10.90;;;3.90;;
1679;SDS011;838;51.794;12.258;2024-02-21T03:00:03;9.40;;;3.60;;
1679;SDS011;838;51.794;12.258;2024-02-21T03:02:31;7.53;;;3.60;;
1679;SDS011;838;51.794;12.258;2024-02-21T03:04:57;10.10;;;4.37;;
1679;SDS011;838;51.794;12.258;2024-02-21T03:07:24;11.70;;;4.57;;
1679;SDS011;838;51.794;12.258;2024-02-21T03:09:50;9.20;;;3.50;;
1679;SDS011;838;51.794;12.258;2024-02-21T03:12:16;11.13;;;3.70;;
1679;SDS011;838;51.794;12.258;2024-02-21T03:14:52;12.57;;;4.07;;
1679;SDS011;838;51.794;12.258;2024-02-21T03:17:18;9.23;;;4.00;;
1679;SDS011;838;51.794;12.258;2024-02-21T03:19:44;14.40;;;3.87;;
1679;SDS011;838;51.794;12.258;2024-02-21T03:22:09;7.60;;;3.90;;
1679;SDS011;838;51.794;12.258;2024-02-21T03:24:38;10.10;;;3.97;;
1679;SDS011;838;51.794;12.258;2024-02-21T03:27:04;8.97;;;4.20;;
1679;SDS011;838;51.794;12.258;2024-02-21T03:29:29;10.20;;;4.37;;
1679;SDS011;838;51.794;12.258;2024-02-21T03:31:55;12.00;;;4.13;;
1679;SDS011;838;51.794;12.258;2024-02-21T03:34:21;9.13;;;4.70;;
1679;SDS011;838;51.794;12.258;2024-02-21T03:36:47;9.93;;;4.23;;
1679;SDS011;838;51.794;12.258;2024-02-21T03:39:13;9.37;;;3.93;;
1679;SDS011;838;51.794;12.258;2024-02-21T03:41:38;12.93;;;4.93;;
1679;SDS011;838;51.794;12.258;2024-02-21T03:44:04;11.40;;;4.60;;
1679;SDS011;838;51.794;12.258;2024-02-21T03:46:30;8.27;;;3.70;;
1679;SDS011;838;51.794;12.258;2024-02-21T03:48:56;7.37;;;3.87;;
1679;SDS011;838;51.794;12.258;2024-02-21T03:51:22;7.23;;;3.40;;
1679;SDS011;838;51.794;12.258;2024-02-21T03:53:48;11.83;;;5.60;;
1679;SDS011;838;51.794;12.258;2024-02-21T03:56:14;7.93;;;3.90;;
1679;SDS011;838;51.794;12.258;2024-02-21T03:58:40;13.77;;;4.40;;
1679;SDS011;838;51.794;12.258;2024-02-21T04:01:05;10.03;;;4.43;;
1679;SDS011;838;51.794;12.258;2024-02-21T04:03:31;9.50;;;3.67;;
1679;SDS011;838;51.794;12.258;2024-02-21T04:05:57;10.80;;;4.70;;
1679;SDS011;838;51.794;12.258;2024-02-21T04:08:22;15.90;;;4.53;;
1679;SDS011;838;51.794;12.258;2024-02-21T04:10:48;11.37;;;4.50;;
1679;SDS011;838;51.794;12.258;2024-02-21T04:13:14;10.07;;;3.83;;
1679;SDS011;838;51.794;12.258;2024-02-21T04:15:40;11.17;;;4.60;;
1679;SDS011;838;51.794;12.258;2024-02-21T04:18:05;15.00;;;4.87;;
1679;SDS011;838;51.794;12.258;2024-02-21T04:20:31;11.53;;;5.40;;
1679;SDS011;838;51.794;12.258;2024-02-21T04:22:57;12.63;;;4.23;;
1679;SDS011;838;51.794;12.258;2024-02-21T04:25:23;11.37;;;4.90;;
1679;SDS011;838;51.794;12.258;2024-02-21T04:27:49;13.03;;;4.67;;
1679;SDS011;838;51.794;12.258;2024-02-21T04:30:15;8.77;;;4.57;;
1679;SDS011;838;51.794;12.258;2024-02-21T04:32:41;13.03;;;4.50;;
1679;SDS011;838;51.794;12.258;2024-02-21T04:35:07;14.00;;;4.23;;
1679;SDS011;838;51.794;12.258;2024-02-21T04:37:33;13.83;;;5.40;;
1679;SDS011;838;51.794;12.258;2024-02-21T04:39:59;13.13;;;4.70;;
1679;SDS011;838;51.794;12.258;2024-02-21T04:42:24;10.33;;;4.73;;
1679;SDS011;838;51.794;12.258;2024-02-21T04:44:50;12.53;;;4.40;;
1679;SDS011;838;51.794;12.258;2024-02-21T04:47:16;9.23;;;4.20;;
1679;SDS011;838;51.794;12.258;2024-02-21T04:49:42;9.60;;;4.10;;
1679;SDS011;838;51.794;12.258;2024-02-21T04:52:08;12.00;;;4.97;;
1679;SDS011;838;51.794;12.258;2024-02-21T04:54:33;14.50;;;4.53;;
1679;SDS011;838;51.794;12.258;2024-02-21T04:57:02;11.60;;;4.20;;
1679;SDS011;838;51.794;12.258;2024-02-21T04:59:28;7.83;;;4.10;;
1679;SDS011;838;51.794;12.258;2024-02-21T05:01:54;7.27;;;4.40;;
1679;SDS011;838;51.794;12.258;2024-02-21T05:04:20;13.13;;;4.43;;
1679;SDS011;838;51.794;12.258;2024-02-21T05:06:46;12.30;;;4.97;;
1679;SDS011;838;51.794;12.258;2024-02-21T05:09:12;15.00;;;4.90;;
1679;SDS011;838;51.794;12.258;2024-02-21T05:11:37;11.67;;;4.40;;
1679;SDS011;838;51.794;12.258;2024-02-21T05:14:03;8.40;;;4.47;;
1679;SDS011;838;51.794;12.258;2024-02-21T05:16:29;18.70;;;4.77;;
1679;SDS011;838;51.794;12.258;2024-02-21T05:18:56;12.00;;;4.87;;
1679;SDS011;838;51.794;12.258;2024-02-21T05:21:25;14.93;;;4.77;;
1679;SDS011;838;51.794;12.258;2024-02-21T05:23:53;11.37;;;4.60;;
1679;SDS011;838;51.794;12.258;2024-02-21T05:26:25;10.37;;;5.00;;
1679;SDS011;838;51.794;12.258;2024-02-21T05:28:52;14.43;;;5.03;;
1679;SDS011;838;51.794;12.258;2024-02-21T05:31:18;12.90;;;5.17;;
1679;SDS011;838;51.794;12.258;2024-02-21T05:33:44;11.07;;;4.13;;
1679;SDS011;838;51.794;12.258;2024-02-21T05:36:11;7.10;;;4.10;;
1679;SDS011;838;51.794;12.258;2024-02-21T05:38:37;12.63;;;4.77;;
1679;SDS011;838;51.794;12.258;2024-02-21T05:41:02;12.60;;;4.23;;
1679;SDS011;838;51.794;12.258;2024-02-21T05:43:28;11.70;;;5.03;;
1679;SDS011;838;51.794;12.258;2024-02-21T05:45:54;14.73;;;5.17;;
1679;SDS011;838;51.794;12.258;2024-02-21T05:48:21;11.40;;;4.40;;
1679;SDS011;838;51.794;12.258;2024-02-21T05:50:47;8.73;;;4.27;;
1679;SDS011;838;51.794;12.258;2024-02-21T05:53:13;7.93;;;4.10;;
1679;SDS011;838;51.794;12.258;2024-02-21T05:55:39;10.87;;;4.10;;
1679;SDS011;838;51.794;12.258;2024-02-21T05:58:05;14.23;;;4.53;;
1679;SDS011;838;51.794;12.258;2024-02-21T06:00:31;16.30;;;4.20;;
1679;SDS011;838;51.794;12.258;2024-02-21T06:02:57;14.30;;;4.17;;
1679;SDS011;838;51.794;12.258;2024-02-21T06:05:23;11.17;;;4.43;;
1679;SDS011;838;51.794;12.258;2024-02-21T06:07:49;15.40;;;5.00;;
1679;SDS011;838;51.794;12.258;2024-02-21T06:10:15;10.23;;;4.47;;
1679;SDS011;838;51.794;12.258;2024-02-21T06:12:40;15.27;;;4.30;;
1679;SDS011;838;51.794;12.258;2024-02-21T06:15:06;10.17;;;5.00;;
1679;SDS011;838;51.794;12.258;2024-02-21T06:17:32;10.50;;;4.60;;
1679;SDS011;838;51.794;12.258;2024-02-21T06:19:58;8.63;;;4.20;;
1679;SDS011;838;51.794;12.258;2024-02-21T06:22:24;10.03;;;4.80;;
1679;SDS011;838;51.794;12.258;2024-02-21T06:24:49;13.13;;;5.13;;
1679;SDS011;838;51.794;12.258;2024-02-21T06:27:15;11.53;;;5.20;;
1679;SDS011;838;51.794;12.258;2024-02-21T06:29:41;9.73;;;4.47;;
1679;SDS011;838;51.794;12.258;2024-02-21T06:32:07;7.67;;;4.33;;
1679;SDS011;838;51.794;12.258;2024-02-21T06:34:33;14.53;;;5.63;;
1679;SDS011;838;51.794;12.258;2024-02-21T06:36:58;12.33;;;5.00;;
1679;SDS011;838;51.794;12.258;2024-02-21T06:39:24;8.60;;;4.80;;
1679;SDS011;838;51.794;12.258;2024-02-21T06:41:50;8.33;;;4.03;;
1679;SDS011;838;51.794;12.258;2024-02-21T06:44:16;12.50;;;5.70;;
1679;SDS011;838;51.794;12.258;2024-02-21T06:46:42;10.97;;;5.70;;
1679;SDS011;838;51.794;12.258;2024-02-21T06:49:08;10.50;;;4.50;;
1679;SDS011;838;51.794;12.258;2024-02-21T06:51:34;15.53;;;5.70;;
1679;SDS011;838;51.794;12.258;2024-02-21T06:54:05;14.90;;;4.97;;
1679;SDS011;838;51.794;12.258;2024-02-21T06:56:30;11.20;;;4.63;;
1679;SDS011;838;51.794;12.258;2024-02-21T06:58:56;14.00;;;5.37;;
1679;SDS011;838;51.794;12.258;2024-02-21T07:01:21;9.47;;;4.60;;
1679;SDS011;838;51.794;12.258;2024-02-21T07:03:47;14.00;;;6.10;;
1679;SDS011;838;51.794;12.258;2024-02-21T07:06:13;14.60;;;4.87;;
1679;SDS011;838;51.794;12.258;2024-02-21T07:08:39;9.53;;;5.00;;
1679;SDS011;838;51.794;12.258;2024-02-21T07:11:05;12.90;;;5.43;;
1679;SDS011;838;51.794;12.258;2024-02-21T07:13:32;15.10;;;5.10;;
1679;SDS011;838;51.794;12.258;2024-02-21T07:15:58;12.03;;;5.87;;
1679;SDS011;838;51.794;12.258;2024-02-21T07:18:23;12.70;;;5.60;;
1679;SDS011;838;51.794;12.258;2024-02-21T07:20:50;8.57;;;4.23;;
1679;SDS011;838;51.794;12.258;2024-02-21T07:23:17;15.07;;;5.20;;
1679;SDS011;838;51.794;12.258;2024-02-21T07:25:43;9.30;;;4.30;;
1679;SDS011;838;51.794;12.258;2024-02-21T07:28:09;13.50;;;5.60;;
1679;SDS011;838;51.794;12.258;2024-02-21T07:30:35;11.10;;;5.10;;
1679;SDS011;838;51.794;12.258;2024-02-21T07:33:01;7.87;;;4.77;;
1679;SDS011;838;51.794;12.258;2024-02-21T07:35:27;11.67;;;5.50;;
1679;SDS011;838;51.794;12.258;2024-02-21T07:37:52;13.50;;;5.00;;
1679;SDS011;838;51.794;12.258;2024-02-21T07:40:18;16.77;;;5.13;;
1679;SDS011;838;51.794;12.258;2024-02-21T07:42:44;9.83;;;4.60;;
1679;SDS011;838;51.794;12.258;2024-02-21T07:45:10;10.47;;;5.47;;
1679;SDS011;838;51.794;12.258;2024-02-21T07:47:38;9.33;;;4.63;;
1679;SDS011;838;51.794;12.258;2024-02-21T07:50:03;12.33;;;5.23;;
1679;SDS011;838;51.794;12.258;2024-02-21T07:52:29;13.87;;;5.13;;
1679;SDS011;838;51.794;12.258;2024-02-21T07:54:55;16.07;;;6.17;;
1679;SDS011;838;51.794;12.258;2024-02-21T07:57:21;13.50;;;4.83;;
1679;SDS011;838;51.794;12.258;2024-02-21T07:59:48;12.03;;;4.60;;
1679;SDS011;838;51.794;12.258;2024-02-21T08:02:14;11.23;;;5.33;;
1679;SDS011;838;51.794;12.258;2024-02-21T08:04:40;12.47;;;5.90;;
1679;SDS011;838;51.794;12.258;2024-02-21T08:07:05;12.53;;;5.33;;
1679;SDS011;838;51.794;12.258;2024-02-21T08:09:31;10.97;;;4.97;;
1679;SDS011;838;51.794;12.258;2024-02-21T08:11:57;15.33;;;5.20;;
1679;SDS011;838;51.794;12.258;2024-02-21T08:14:22;13.20;;;4.90;;
1679;SDS011;838;51.794;12.258;2024-02-21T08:16:50;8.43;;;4.20;;
1679;SDS011;838;51.794;12.258;2024-02-21T08:19:16;7.80;;;4.50;;
1679;SDS011;838;51.794;12.258;2024-02-21T08:21:43;11.97;;;5.37;;
1679;SDS011;838;51.794;12.258;2024-02-21T08:24:08;12.60;;;5.40;;
1679;SDS011;838;51.794;12.258;2024-02-21T08:26:35;9.87;;;4.87;;
1679;SDS011;838;51.794;12.258;2024-02-21T08:29:10;12.17;;;5.20;;
1679;SDS011;838;51.794;12.258;2024-02-21T08:31:37;13.80;;;5.20;;
1679;SDS011;838;51.794;12.258;2024-02-21T08:34:02;9.43;;;4.80;;
1679;SDS011;838;51.794;12.258;2024-02-21T08:36:35;11.50;;;4.60;;
1679;SDS011;838;51.794;12.258;2024-02-21T08:39:02;11.50;;;4.50;;
1679;SDS011;838;51.794;12.258;2024-02-21T08:41:30;11.10;;;5.57;;
1679;SDS011;838;51.794;12.258;2024-02-21T08:43:56;10.67;;;5.23;;
1679;SDS011;838;51.794;12.258;2024-02-21T08:46:25;11.40;;;5.37;;
1679;SDS011;838;51.794;12.258;2024-02-21T08:48:52;8.17;;;4.83;;
1679;SDS011;838;51.794;12.258;2024-02-21T08:51:18;17.77;;;4.87;;
1679;SDS011;838;51.794;12.258;2024-02-21T08:53:44;12.53;;;5.40;;
1679;SDS011;838;51.794;12.258;2024-02-21T08:56:10;14.57;;;5.13;;
1679;SDS011;838;51.794;12.258;2024-02-21T08:58:36;9.37;;;4.70;;
1679;SDS011;838;51.794;12.258;2024-02-21T09:01:03;9.50;;;5.07;;
1679;SDS011;838;51.794;12.258;2024-02-21T09:03:31;7.93;;;4.53;;
1679;SDS011;838;51.794;12.258;2024-02-21T09:05:57;10.93;;;4.77;;
1679;SDS011;838;51.794;12.258;2024-02-21T09:08:24;9.07;;;5.30;;
1679;SDS011;838;51.794;12.258;2024-02-21T09:10:50;8.17;;;4.50;;
1679;SDS011;838;51.794;12.258;2024-02-21T09:13:16;9.33;;;4.80;;
1679;SDS011;838;51.794;12.258;2024-02-21T09:15:42;11.80;;;5.33;;
1679;SDS011;838;51.794;12.258;2024-02-21T09:18:08;9.67;;;5.10;;
1679;SDS011;838;51.794;12.258;2024-02-21T09:20:33;12.30;;;5.83;;
1679;SDS011;838;51.794;12.258;2024-02-21T09:22:59;7.93;;;4.33;;
1679;SDS011;838;51.794;12.258;2024-02-21T09:25:25;10.57;;;4.97;;
1679;SDS011;838;51.794;12.258;2024-02-21T09:27:51;10.23;;;5.00;;
1679;SDS011;838;51.794;12.258;2024-02-21T09:30:18;11.00;;;5.33;;
1679;SDS011;838;51.794;12.258;2024-02-21T09:32:45;10.10;;;5.27;;
1679;SDS011;838;51.794;12.258;2024-02-21T09:35:11;9.80;;;5.90;;
1679;SDS011;838;51.794;12.258;2024-02-21T09:37:37;6.90;;;4.37;;
1679;SDS011;838;51.794;12.258;2024-02-21T09:40:04;13.67;;;5.50;;
1679;SDS011;838;51.794;12.258;2024-02-21T09:42:36;8.87;;;5.47;;
1679;SDS011;838;51.794;12.258;2024-02-21T09:50:46;8.17;;;4.77;;
1679;SDS011;838;51.794;12.258;2024-02-21T09:53:14;9.73;;;5.33;;
1679;SDS011;838;51.794;12.258;2024-02-21T09:55:40;11.60;;;4.40;;
1679;SDS011;838;51.794;12.258;2024-02-21T09:58:07;10.53;;;5.97;;
1679;SDS011;838;51.794;12.258;2024-02-21T10:00:35;14.27;;;5.53;;
1679;SDS011;838;51.794;12.258;2024-02-21T10:03:04;10.17;;;4.77;;
1679;SDS011;838;51.794;12.258;2024-02-21T10:05:35;7.73;;;4.47;;
1679;SDS011;838;51.794;12.258;2024-02-21T10:08:02;7.93;;;5.10;;
1679;SDS011;838;51.794;12.258;2024-02-21T10:10:40;9.17;;;4.73;;
1679;SDS011;838;51.794;12.258;2024-02-21T10:13:09;9.30;;;4.60;;
1679;SDS011;838;51.794;12.258;2024-02-21T10:15:35;8.93;;;4.47;;
1679;SDS011;838;51.794;12.258;2024-02-21T10:18:01;10.60;;;5.37;;
1679;SDS011;838;51.794;12.258;2024-02-21T10:20:28;8.97;;;4.17;;
1679;SDS011;838;51.794;12.258;2024-02-21T10:23:00;8.60;;;4.87;;
1679;SDS011;838;51.794;12.258;2024-02-21T10:25:36;7.33;;;4.50;;
1679;SDS011;838;51.794;12.258;2024-02-21T10:28:13;8.23;;;4.07;;
1679;SDS011;838;51.794;12.258;2024-02-21T10:30:49;9.83;;;4.87;;
1679;SDS011;838;51.794;12.258;2024-02-21T10:33:16;12.50;;;4.60;;
1679;SDS011;838;51.794;12.258;2024-02-21T10:35:45;9.93;;;4.40;;
1679;SDS011;838;51.794;12.258;2024-02-21T10:38:12;11.23;;;6.27;;
1679;SDS011;838;51.794;12.258;2024-02-21T10:40:38;7.17;;;4.17;;
1679;SDS011;838;51.794;12.258;2024-02-21T10:43:03;9.37;;;4.40;;
1679;SDS011;838;51.794;12.258;2024-02-21T10:45:34;9.23;;;4.70;;
1679;SDS011;838;51.794;12.258;2024-02-21T10:48:22;7.13;;;4.30;;
1679;SDS011;838;51.794;12.258;2024-02-21T10:51:00;8.70;;;4.40;;
1679;SDS011;838;51.794;12.258;2024-02-21T10:59:03;7.10;;;4.13;;
1679;SDS011;838;51.794;12.258;2024-02-21T11:01:30;8.43;;;3.83;;
1679;SDS011;838;51.794;12.258;2024-02-21T11:04:01;10.63;;;4.90;;
1679;SDS011;838;51.794;12.258;2024-02-21T11:06:28;8.27;;;3.97;;
1679;SDS011;838;51.794;12.258;2024-02-21T11:11:33;7.70;;;3.90;;
1679;SDS011;838;51.794;12.258;2024-02-21T11:14:09;7.30;;;3.43;;
1679;SDS011;838;51.794;12.258;2024-02-21T11:16:38;11.93;;;4.17;;
1679;SDS011;838;51.794;12.258;2024-02-21T11:19:08;8.87;;;4.37;;
1679;SDS011;838;51.794;12.258;2024-02-21T11:21:36;8.67;;;4.40;;
1679;SDS011;838;51.794;12.258;2024-02-21T11:24:03;10.50;;;4.03;;
1679;SDS011;838;51.794;12.258;2024-02-21T11:26:30;8.33;;;3.80;;
1679;SDS011;838;51.794;12.258;2024-02-21T11:28:57;12.80;;;3.53;;
1679;SDS011;838;51.794;12.258;2024-02-21T11:31:24;9.07;;;3.70;;
1679;SDS011;838;51.794;12.258;2024-02-21T11:33:52;7.70;;;3.10;;
1679;SDS011;838;51.794;12.258;2024-02-21T11:36:27;7.97;;;3.80;;
1679;SDS011;838;51.794;12.258;2024-02-21T11:38:53;8.37;;;4.30;;
1679;SDS011;838;51.794;12.258;2024-02-21T11:41:19;10.33;;;4.43;;
1679;SDS011;838;51.794;12.258;2024-02-21T11:43:48;8.93;;;3.60;;
1679;SDS011;838;51.794;12.258;2024-02-21T11:46:16;10.23;;;3.80;;
1679;SDS011;838;51.794;12.258;2024-02-21T11:48:42;9.07;;;4.70;;
1679;SDS011;838;51.794;12.258;2024-02-21T11:51:20;11.47;;;3.43;;
1679;SDS011;838;51.794;12.258;2024-02-21T11:53:50;8.13;;;4.27;;
1679;SDS011;838;51.794;12.258;2024-02-21T11:56:19;9.50;;;4.60;;
1679;SDS011;838;51.794;12.258;2024-02-21T11:58:48;7.90;;;3.90;;
1679;SDS011;838;51.794;12.258;2024-02-21T12:01:14;7.77;;;4.13;;
1679;SDS011;838;51.794;12.258;2024-02-21T12:03:41;9.43;;;3.40;;
1679;SDS011;838;51.794;12.258;2024-02-21T12:06:10;7.60;;;3.60;;
1679;SDS011;838;51.794;12.258;2024-02-21T12:08:42;7.47;;;3.80;;
1679;SDS011;838;51.794;12.258;2024-02-21T12:11:42;7.53;;;3.43;;
1679;SDS011;838;51.794;12.258;2024-02-21T12:14:01;10.03;;;3.40;;
1679;SDS011;838;51.794;12.258;2024-02-21T12:16:31;7.53;;;3.63;;
1679;SDS011;838;51.794;12.258;2024-02-21T12:18:58;9.53;;;3.83;;
1679;SDS011;838;51.794;12.258;2024-02-21T12:21:33;7.70;;;3.50;;
1679;SDS011;838;51.794;12.258;2024-02-21T12:26:47;5.20;;;3.10;;
1679;SDS011;838;51.794;12.258;2024-02-21T12:29:13;4.83;;;2.80;;
1679;SDS011;838;51.794;12.258;2024-02-21T12:31:38;10.10;;;3.60;;
1679;SDS011;838;51.794;12.258;2024-02-21T12:34:05;8.03;;;3.07;;
1679;SDS011;838;51.794;12.258;2024-02-21T12:36:35;11.23;;;3.40;;
1679;SDS011;838;51.794;12.258;2024-02-21T12:39:07;6.87;;;3.57;;
1679;SDS011;838;51.794;12.258;2024-02-21T12:41:33;7.13;;;3.40;;
1679;SDS011;838;51.794;12.258;2024-02-21T12:44:03;7.13;;;3.40;;
1679;SDS011;838;51.794;12.258;2024-02-21T12:46:34;8.20;;;3.50;;
1679;SDS011;838;51.794;12.258;2024-02-21T12:49:00;8.07;;;3.00;;
1679;SDS011;838;51.794;12.258;2024-02-21T12:51:28;8.23;;;3.43;;
1679;SDS011;838;51.794;12.258;2024-02-21T12:53:54;7.50;;;3.60;;
1679;SDS011;838;51.794;12.258;2024-02-21T12:56:20;8.17;;;3.53;;
1679;SDS011;838;51.794;12.258;2024-02-21T12:58:46;6.83;;;2.80;;
1679;SDS011;838;51.794;12.258;2024-02-21T13:01:12;5.60;;;2.70;;
1679;SDS011;838;51.794;12.258;2024-02-21T13:03:38;6.80;;;3.10;;
1679;SDS011;838;51.794;12.258;2024-02-21T13:06:04;8.20;;;3.23;;
1679;SDS011;838;51.794;12.258;2024-02-21T13:08:32;5.73;;;2.90;;
1679;SDS011;838;51.794;12.258;2024-02-21T13:10:59;6.03;;;2.90;;
1679;SDS011;838;51.794;12.258;2024-02-21T13:13:26;7.27;;;2.47;;
1679;SDS011;838;51.794;12.258;2024-02-21T13:15:52;5.83;;;2.50;;
1679;SDS011;838;51.794;12.258;2024-02-21T13:18:18;6.97;;;2.87;;
1679;SDS011;838;51.794;12.258;2024-02-21T13:20:43;6.40;;;2.80;;
1679;SDS011;838;51.794;12.258;2024-02-21T13:23:09;8.07;;;3.03;;
1679;SDS011;838;51.794;12.258;2024-02-21T13:25:35;15.77;;;3.70;;
1679;SDS011;838;51.794;12.258;2024-02-21T13:28:00;9.10;;;3.17;;
1679;SDS011;838;51.794;12.258;2024-02-21T13:30:28;7.40;;;2.63;;
1679;SDS011;838;51.794;12.258;2024-02-21T13:32:54;5.37;;;2.33;;
1679;SDS011;838;51.794;12.258;2024-02-21T13:35:20;7.60;;;3.37;;
1679;SDS011;838;51.794;12.258;2024-02-21T13:37:45;5.40;;;2.70;;
1679;SDS011;838;51.794;12.258;2024-02-21T13:40:11;7.93;;;4.43;;
1679;SDS011;838;51.794;12.258;2024-02-21T13:42:40;5.77;;;2.87;;
1679;SDS011;838;51.794;12.258;2024-02-21T13:45:06;6.40;;;2.80;;
1679;SDS011;838;51.794;12.258;2024-02-21T13:47:35;4.50;;;2.47;;
1679;SDS011;838;51.794;12.258;2024-02-21T13:50:02;5.60;;;2.60;;
1679;SDS011;838;51.794;12.258;2024-02-21T13:52:34;7.17;;;3.33;;
1679;SDS011;838;51.794;12.258;2024-02-21T13:55:00;6.00;;;3.20;;
1679;SDS011;838;51.794;12.258;2024-02-21T13:57:25;8.03;;;3.20;;
1679;SDS011;838;51.794;12.258;2024-02-21T13:59:51;5.73;;;2.70;;
1679;SDS011;838;51.794;12.258;2024-02-21T14:02:17;6.13;;;2.90;;
1679;SDS011;838;51.794;12.258;2024-02-21T14:04:43;6.43;;;2.67;;
1679;SDS011;838;51.794;12.258;2024-02-21T14:07:09;9.00;;;2.77;;
1679;SDS011;838;51.794;12.258;2024-02-21T14:09:35;5.07;;;2.73;;
1679;SDS011;838;51.794;12.258;2024-02-21T14:12:01;6.90;;;3.63;;
1679;SDS011;838;51.794;12.258;2024-02-21T14:14:27;7.43;;;4.00;;
1679;SDS011;838;51.794;12.258;2024-02-21T14:16:52;8.30;;;2.83;;
1679;SDS011;838;51.794;12.258;2024-02-21T14:19:18;5.53;;;2.80;;
1679;SDS011;838;51.794;12.258;2024-02-21T14:21:44;7.00;;;2.50;;
1679;SDS011;838;51.794;12.258;2024-02-21T14:24:11;8.10;;;3.87;;
1679;SDS011;838;51.794;12.258;2024-02-21T14:26:37;10.47;;;3.27;;
1679;SDS011;838;51.794;12.258;2024-02-21T14:29:04;5.13;;;2.90;;
1679;SDS011;838;51.794;12.258;2024-02-21T14:31:32;5.63;;;2.83;;
1679;SDS011;838;51.794;12.258;2024-02-21T14:33:58;6.77;;;3.73;;
1679;SDS011;838;51.794;12.258;2024-02-21T14:36:25;9.53;;;4.70;;
1679;SDS011;838;51.794;12.258;2024-02-21T14:38:51;10.70;;;3.70;;
1679;SDS011;838;51.794;12.258;2024-02-21T14:41:17;7.70;;;3.80;;
1679;SDS011;838;51.794;12.258;2024-02-21T14:43:44;6.53;;;3.57;;
1679;SDS011;838;51.794;12.258;2024-02-21T14:46:10;6.83;;;3.33;;
1679;SDS011;838;51.794;12.258;2024-02-21T14:48:37;7.70;;;3.27;;
1679;SDS011;838;51.794;12.258;2024-02-21T14:51:03;10.03;;;4.13;;
1679;SDS011;838;51.794;12.258;2024-02-21T14:53:29;7.37;;;3.70;;
1679;SDS011;838;51.794;12.258;2024-02-21T14:55:56;11.40;;;4.90;;
1679;SDS011;838;51.794;12.258;2024-02-21T14:58:23;10.47;;;4.50;;
1679;SDS011;838;51.794;12.258;2024-02-21T15:00:49;8.10;;;3.80;;
1679;SDS011;838;51.794;12.258;2024-02-21T15:03:18;10.87;;;5.17;;
1679;SDS011;838;51.794;12.258;2024-02-21T15:05:46;8.47;;;3.93;;
1679;SDS011;838;51.794;12.258;2024-02-21T15:08:12;7.53;;;3.80;;
1679;SDS011;838;51.794;12.258;2024-02-21T15:10:41;9.10;;;4.57;;
1679;SDS011;838;51.794;12.258;2024-02-21T15:13:08;7.43;;;3.77;;
1679;SDS011;838;51.794;12.258;2024-02-21T15:15:34;8.73;;;3.60;;
1679;SDS011;838;51.794;12.258;2024-02-21T15:18:00;14.47;;;3.70;;
1679;SDS011;838;51.794;12.258;2024-02-21T15:20:25;8.70;;;4.40;;
1679;SDS011;838;51.794;12.258;2024-02-21T15:22:53;8.53;;;4.47;;